Terminal Aerodrome Forecast
Issued by NWS

Home | Current Version | Previous Version | Text Only | Print | Product List | Glossary On
Versions: 1 2 3 4 5 6 7 8 9 10 11 12 13 14 15 16 17 18 19 20 21 22 23 24 25 26 27 28 29
000
FTUS41 KCTP 301800 RRA
TAFAOO
TAF
KAOO 301800Z 3018/3118 15008G15KT P6SM VCSH SCT040 OVC070
     FM301900 15010G20KT 5SM -SHRA SCT025 OVC035
     FM302000 15012G20KT P6SM BKN035
     FM302300 15012G24KT 5SM BR VCSH OVC025 WS020/17035KT
     FM310300 14013KT 3SM BR VCSH OVC015 WS020/18035KT
     FM310900 15010KT 1SM -RA BR OVC007 WS020/20042KT PROB30
      3112/3118 3SM -TSRA OVC012CB=

USA.gov is the U.S. government's official web portal to all federal, state and local government web resources and services.